createdAt,value
2022-08-22T00:00:13.367Z,1.60
2022-08-22T00:02:49.030Z,0.68
2022-08-22T00:05:58.955Z,1.30
2022-08-22T00:08:52.020Z,1.50
2022-08-22T00:11:33.348Z,1.40
2022-08-22T00:14:17.890Z,1.40
2022-08-22T00:16:53.547Z,1.60
2022-08-22T00:19:51.984Z,1.50
2022-08-22T00:22:30.483Z,1.50
2022-08-22T00:25:25.709Z,1.90
2022-08-22T00:28:16.077Z,1.42
2022-08-22T00:30:58.022Z,1.75
2022-08-22T00:33:35.004Z,1.30
2022-08-22T00:36:16.721Z,1.42
2022-08-22T00:38:52.349Z,2.10
2022-08-22T00:41:56.155Z,2.10
2022-08-22T00:44:45.454Z,2.35
2022-08-22T00:47:31.899Z,1.88
2022-08-22T00:49:58.516Z,2.22
2022-08-22T00:52:50.756Z,1.83
2022-08-22T00:55:45.274Z,2.03
2022-08-22T00:58:21.087Z,1.83
2022-08-22T01:01:05.340Z,1.90
2022-08-22T01:04:07.226Z,1.85
2022-08-22T01:07:12.444Z,1.92
2022-08-22T01:09:39.104Z,2.03
2022-08-22T01:12:26.868Z,1.70
2022-08-22T01:14:59.277Z,1.83
2022-08-22T01:17:56.348Z,2.25
2022-08-22T01:21:00.719Z,2.08
2022-08-22T01:24:08.704Z,1.80
2022-08-22T01:27:00.201Z,2.17
2022-08-22T01:29:45.479Z,2.15
2022-08-22T01:32:44.699Z,2.45
2022-08-22T01:35:29.462Z,2.40
2022-08-22T01:38:26.983Z,1.88
2022-08-22T01:41:10.338Z,2.00
2022-08-22T01:44:01.761Z,2.30
2022-08-22T01:46:37.254Z,2.30
2022-08-22T01:49:45.188Z,1.80
2022-08-22T01:52:21.832Z,3.67
2022-08-22T01:54:57.771Z,1.98
2022-08-22T01:57:26.295Z,1.73
2022-08-22T02:00:06.060Z,1.30
2022-08-22T02:03:06.814Z,2.00
2022-08-22T02:05:48.421Z,1.73
2022-08-22T02:08:19.374Z,1.75
2022-08-22T02:11:10.749Z,1.13
2022-08-22T02:13:55.255Z,1.10
2022-08-22T02:16:44.929Z,1.40
2022-08-22T02:19:14.557Z,1.42
2022-08-22T02:21:55.287Z,1.13
2022-08-22T02:24:35.530Z,1.20
2022-08-22T02:27:34.633Z,0.82
2022-08-22T02:30:11.685Z,0.88
2022-08-22T02:32:40.989Z,0.80
2022-08-22T02:35:18.287Z,1.10
2022-08-22T02:38:07.606Z,0.82
2022-08-22T02:40:48.396Z,1.00
2022-08-22T02:43:19.188Z,1.00
2022-08-22T02:45:56.854Z,0.90
2022-08-22T02:48:48.112Z,0.80
2022-08-22T02:51:20.567Z,0.85
2022-08-22T02:53:57.723Z,0.90
2022-08-22T02:56:24.294Z,1.00
2022-08-22T02:59:14.366Z,0.90
2022-08-22T03:01:46.693Z,1.00
2022-08-22T03:04:15.972Z,0.98
2022-08-22T03:07:00.167Z,0.80
2022-08-22T03:09:34.481Z,0.90
2022-08-22T03:12:40.027Z,0.70
2022-08-22T03:15:12.294Z,0.70
2022-08-22T03:17:55.649Z,0.98
2022-08-22T03:20:36.651Z,0.75
2022-08-22T03:23:13.171Z,0.82
2022-08-22T03:25:45.461Z,0.70
2022-08-22T03:28:18.615Z,0.65
2022-08-22T03:30:57.538Z,0.70
2022-08-22T03:33:27.564Z,0.68
2022-08-22T03:36:24.499Z,1.25
2022-08-22T03:39:18.826Z,0.98
2022-08-22T03:42:09.254Z,0.90
2022-08-22T03:44:51.157Z,0.77
2022-08-22T03:48:00.326Z,0.70
2022-08-22T03:50:46.543Z,0.90
2022-08-22T03:54:11.877Z,1.00
2022-08-22T03:56:38.599Z,1.00
2022-08-22T03:59:36.608Z,0.85
2022-08-22T04:02:42.904Z,0.90
2022-08-22T04:05:11.236Z,0.80
2022-08-22T04:07:46.970Z,0.80
2022-08-22T04:10:49.142Z,0.73
2022-08-22T04:13:33.892Z,0.90
2022-08-22T04:16:40.359Z,0.85
2022-08-22T04:19:58.407Z,0.63
2022-08-22T04:22:49.629Z,1.00
2022-08-22T04:25:41.982Z,0.88
2022-08-22T04:28:22.656Z,1.00
2022-08-22T04:31:10.576Z,0.70
2022-08-22T04:34:03.809Z,0.73
2022-08-22T04:36:45.966Z,0.90
2022-08-22T04:39:21.551Z,0.80
2022-08-22T04:42:16.266Z,0.63
2022-08-22T04:44:57.726Z,0.70
2022-08-22T04:47:33.587Z,0.80
2022-08-22T04:50:30.732Z,0.90
2022-08-22T04:53:45.225Z,0.60
2022-08-22T04:56:56.580Z,0.80
2022-08-22T04:59:25.214Z,0.73
2022-08-22T05:02:06.321Z,1.00
2022-08-22T05:04:39.302Z,1.20
2022-08-22T05:07:19.758Z,1.17
2022-08-22T05:09:54.408Z,1.10
2022-08-22T05:12:35.820Z,0.90
2022-08-22T05:15:18.997Z,1.10
2022-08-22T05:17:53.522Z,1.08
2022-08-22T05:20:26.078Z,1.08
2022-08-22T05:23:02.738Z,1.33
2022-08-22T05:25:37.931Z,0.75
2022-08-22T05:28:37.335Z,0.70
2022-08-22T05:31:09.303Z,0.80
2022-08-22T05:33:52.078Z,0.80
2022-08-22T05:36:28.744Z,1.30
2022-08-22T05:39:00.307Z,0.90
2022-08-22T05:41:32.683Z,0.82
2022-08-22T05:43:59.849Z,0.75
2022-08-22T05:46:41.684Z,1.10
2022-08-22T05:49:34.489Z,0.80
2022-08-22T05:52:19.445Z,1.15
2022-08-22T05:55:13.475Z,0.80
2022-08-22T05:57:46.419Z,1.20
2022-08-22T06:00:21.583Z,1.08
2022-08-22T06:03:17.184Z,1.23
2022-08-22T06:05:48.662Z,0.80
2022-08-22T06:08:34.519Z,1.05
2022-08-22T06:11:22.401Z,0.85
2022-08-22T06:14:17.555Z,0.90
2022-08-22T06:16:50.459Z,1.20
2022-08-22T06:19:20.252Z,1.40
2022-08-22T06:21:50.642Z,1.10
2022-08-22T06:24:23.942Z,0.80
2022-08-22T06:26:53.695Z,0.93
2022-08-22T06:29:31.714Z,1.00
2022-08-22T06:32:01.422Z,2.10
2022-08-22T06:34:34.649Z,2.47
2022-08-22T06:37:05.701Z,1.35
2022-08-22T06:39:42.618Z,1.10
2022-08-22T06:42:15.898Z,1.27
2022-08-22T06:44:50.098Z,0.90
2022-08-22T06:47:24.799Z,1.10
2022-08-22T06:52:25.168Z,0.98
2022-08-22T06:55:02.510Z,1.85
2022-08-22T06:57:41.553Z,1.38
2022-08-22T07:00:13.411Z,1.75
2022-08-22T07:02:45.280Z,1.20
2022-08-22T07:05:18.544Z,1.38
2022-08-22T07:07:45.580Z,1.25
2022-08-22T07:10:15.184Z,1.20
2022-08-22T07:12:49.398Z,1.08
2022-08-22T07:15:30.083Z,1.30
2022-08-22T07:18:00.595Z,1.20
2022-08-22T07:20:31.434Z,1.05
2022-08-22T07:23:02.599Z,1.67
2022-08-22T07:25:30.466Z,1.52
2022-08-22T07:28:22.191Z,1.42
2022-08-22T07:31:26.386Z,1.38
2022-08-22T07:34:21.950Z,1.50
2022-08-22T07:37:14.843Z,1.63
2022-08-22T07:39:53.852Z,2.00
2022-08-22T07:42:46.254Z,2.45
2022-08-22T07:45:34.084Z,1.65
2022-08-22T07:48:26.281Z,1.27
2022-08-22T07:51:28.597Z,2.10
2022-08-22T07:54:11.257Z,1.65
2022-08-22T07:56:45.640Z,1.90
2022-08-22T07:59:18.898Z,1.80
2022-08-22T08:01:58.862Z,1.80
2022-08-22T08:04:30.625Z,1.92
2022-08-22T08:07:00.071Z,2.80
2022-08-22T08:09:34.431Z,2.40
2022-08-22T08:12:05.820Z,1.90
2022-08-22T08:14:35.797Z,1.80
2022-08-22T08:17:07.207Z,2.28
2022-08-22T08:19:38.487Z,2.63
2022-08-22T08:22:06.127Z,2.60
2022-08-22T08:24:41.549Z,8.85
2022-08-22T08:27:33.451Z,3.42
2022-08-22T08:30:15.385Z,3.03
2022-08-22T08:32:47.551Z,2.70
2022-08-22T08:35:42.399Z,2.55
2022-08-22T08:38:32.800Z,3.30
2022-08-22T08:41:43.854Z,2.90
2022-08-22T08:44:31.993Z,2.92
2022-08-22T08:47:16.774Z,3.42
2022-08-22T08:49:56.925Z,3.38
2022-08-22T08:52:35.713Z,3.35
2022-08-22T08:55:26.870Z,3.20
2022-08-22T08:58:07.080Z,3.35
2022-08-22T09:00:45.925Z,3.28
2022-08-22T09:03:24.016Z,3.40
2022-08-22T09:06:18.633Z,3.00
2022-08-22T09:09:13.843Z,3.38
2022-08-22T09:11:59.431Z,3.03
2022-08-22T09:14:32.214Z,4.85
2022-08-22T09:17:09.663Z,5.43
2022-08-22T09:20:17.835Z,3.70
2022-08-22T09:22:50.575Z,3.30
2022-08-22T09:25:39.206Z,3.50
2022-08-22T09:28:38.921Z,3.55
2022-08-22T09:31:32.863Z,3.53
2022-08-22T09:34:09.075Z,3.80
2022-08-22T09:37:02.743Z,3.60
2022-08-22T09:40:00.008Z,3.28
2022-08-22T09:42:56.277Z,3.75
2022-08-22T09:45:38.207Z,3.70
2022-08-22T09:48:40.047Z,3.38
2022-08-22T09:51:31.988Z,3.33
2022-08-22T09:54:46.695Z,3.53
2022-08-22T09:57:41.092Z,3.45
2022-08-22T10:00:22.342Z,3.80
2022-08-22T10:03:23.311Z,3.92
2022-08-22T10:05:59.315Z,4.00
2022-08-22T10:09:09.095Z,3.30
2022-08-22T10:11:46.730Z,3.67
2022-08-22T10:14:23.086Z,3.08
2022-08-22T10:17:21.952Z,4.35
2022-08-22T10:19:58.606Z,3.55
2022-08-22T10:22:37.054Z,3.40
2022-08-22T10:25:34.689Z,3.58
2022-08-22T10:28:20.053Z,3.45
2022-08-22T10:31:19.827Z,3.58
2022-08-22T10:34:05.228Z,3.45
2022-08-22T10:37:11.688Z,3.17
2022-08-22T10:39:57.803Z,3.45
2022-08-22T10:42:30.128Z,3.67
2022-08-22T10:45:36.814Z,3.20
2022-08-22T10:48:09.732Z,3.72
2022-08-22T10:50:47.976Z,3.95
2022-08-22T10:53:30.235Z,3.88
2022-08-22T10:56:16.150Z,3.97
2022-08-22T10:58:56.230Z,4.60
2022-08-22T11:04:28.262Z,3.92
2022-08-22T11:07:44.584Z,4.45
2022-08-22T11:10:30.449Z,4.60
2022-08-22T11:13:28.978Z,3.97
2022-08-22T11:16:13.691Z,4.65
2022-08-22T11:19:02.187Z,5.03
2022-08-22T11:21:41.297Z,4.43
2022-08-22T11:24:55.962Z,4.50
2022-08-22T11:27:41.319Z,4.55
2022-08-22T11:30:20.549Z,4.72
2022-08-22T11:33:02.204Z,5.43
2022-08-22T11:35:42.304Z,4.43
2022-08-22T11:38:40.861Z,4.53
2022-08-22T11:41:26.773Z,4.10
2022-08-22T11:44:31.373Z,4.10
2022-08-22T11:47:02.775Z,4.53
2022-08-22T11:49:52.867Z,4.65
2022-08-22T11:52:23.445Z,4.30
2022-08-22T11:55:33.150Z,4.50
2022-08-22T11:58:19.335Z,5.20
2022-08-22T12:00:56.813Z,4.55
2022-08-22T12:03:34.428Z,4.43
2022-08-22T12:06:22.328Z,4.45
2022-08-22T12:09:09.650Z,4.30
2022-08-22T12:11:36.171Z,4.80
2022-08-22T12:14:07.683Z,4.45
2022-08-22T12:16:56.634Z,5.10
2022-08-22T12:20:15.015Z,4.43
2022-08-22T12:23:21.129Z,4.60
2022-08-22T12:26:18.606Z,3.97
2022-08-22T12:29:15.269Z,4.45
2022-08-22T12:32:15.998Z,4.60
2022-08-22T12:34:50.127Z,3.88
2022-08-22T12:37:33.710Z,4.10
2022-08-22T12:40:43.855Z,3.97
2022-08-22T12:43:42.360Z,4.18
2022-08-22T12:46:13.672Z,3.92
2022-08-22T12:49:11.059Z,3.80
2022-08-22T12:51:46.870Z,3.67
2022-08-22T12:54:35.252Z,4.30
2022-08-22T12:57:10.580Z,4.22
2022-08-22T12:59:58.144Z,3.70
2022-08-22T13:02:30.464Z,3.42
2022-08-22T13:05:08.691Z,3.63
2022-08-22T13:07:36.982Z,3.55
2022-08-22T13:10:17.377Z,4.07
2022-08-22T13:12:48.035Z,3.50
2022-08-22T13:15:19.075Z,3.95
2022-08-22T13:17:47.347Z,3.88
2022-08-22T13:20:33.003Z,3.92
2022-08-22T13:23:05.389Z,3.60
2022-08-22T13:26:07.607Z,3.45
2022-08-22T13:28:42.024Z,3.95
2022-08-22T13:31:10.484Z,4.10
2022-08-22T13:33:47.713Z,3.63
2022-08-22T13:36:20.082Z,4.05
2022-08-22T13:39:05.450Z,3.67
2022-08-22T13:41:44.198Z,3.90
2022-08-22T13:44:17.836Z,4.10
2022-08-22T13:47:12.962Z,4.38
2022-08-22T13:49:41.176Z,4.35
2022-08-22T13:52:29.724Z,4.07
2022-08-22T13:55:02.343Z,4.47
2022-08-22T13:57:38.326Z,4.63
2022-08-22T14:00:28.750Z,4.30
2022-08-22T14:03:08.014Z,4.50
2022-08-22T14:05:43.317Z,4.75
2022-08-22T14:08:15.580Z,4.93
2022-08-22T14:10:55.124Z,4.95
2022-08-22T14:13:37.791Z,5.00
2022-08-22T14:16:10.475Z,4.97
2022-08-22T14:18:45.491Z,4.30
2022-08-22T14:21:46.054Z,6.72
2022-08-22T14:24:29.103Z,4.80
2022-08-22T14:27:05.190Z,4.63
2022-08-22T14:29:54.998Z,5.78
2022-08-22T14:32:23.310Z,4.75
2022-08-22T14:35:34.687Z,4.93
2022-08-22T14:38:21.372Z,4.78
2022-08-22T14:41:00.476Z,4.78
2022-08-22T14:43:29.930Z,4.32
2022-08-22T14:46:02.181Z,4.55
2022-08-22T14:48:46.069Z,4.68
2022-08-22T14:51:23.738Z,3.80
2022-08-22T14:53:51.375Z,4.35
2022-08-22T14:56:28.005Z,4.05
2022-08-22T14:59:07.584Z,4.60
2022-08-22T15:01:53.260Z,3.80
2022-08-22T15:04:38.096Z,3.80
2022-08-22T15:07:06.846Z,4.85
2022-08-22T15:09:50.483Z,4.78
2022-08-22T15:12:39.357Z,4.43
2022-08-22T15:15:14.414Z,4.93
2022-08-22T15:17:44.163Z,5.30
2022-08-22T15:20:35.367Z,5.20
2022-08-22T15:23:27.376Z,4.70
2022-08-22T15:26:07.021Z,4.70
2022-08-22T15:28:52.380Z,4.72
2022-08-22T15:31:20.174Z,4.10
2022-08-22T15:33:48.381Z,3.90
2022-08-22T15:36:26.021Z,4.32
2022-08-22T15:39:32.716Z,5.00
2022-08-22T15:42:02.703Z,4.18
2022-08-22T15:44:40.549Z,3.53
2022-08-22T15:47:29.534Z,3.30
2022-08-22T15:50:05.278Z,3.20
2022-08-22T15:52:59.148Z,4.22
2022-08-22T15:55:34.517Z,4.20
2022-08-22T15:58:09.421Z,4.13
2022-08-22T16:01:02.670Z,3.55
2022-08-22T16:03:32.997Z,3.67
2022-08-22T16:06:07.479Z,4.25
2022-08-22T16:11:03.751Z,5.63
2022-08-22T16:13:30.425Z,5.90
2022-08-22T16:15:57.160Z,6.05
2022-08-22T16:18:45.210Z,5.95
2022-08-22T16:21:17.415Z,7.55
2022-08-22T16:24:04.263Z,6.97
2022-08-22T16:26:30.798Z,7.38
2022-08-22T16:29:24.645Z,11.15
2022-08-22T16:31:53.060Z,8.13
2022-08-22T16:34:22.691Z,7.68
2022-08-22T16:36:54.962Z,8.63
2022-08-22T16:39:21.513Z,9.23
2022-08-22T16:41:54.316Z,9.15
2022-08-22T16:44:30.000Z,9.27
2022-08-22T16:47:18.955Z,8.88
2022-08-22T16:49:51.618Z,8.77
2022-08-22T16:52:21.118Z,8.65
2022-08-22T16:55:03.044Z,8.48
2022-08-22T16:58:14.387Z,8.48
2022-08-22T17:00:57.719Z,9.27
2022-08-22T17:03:39.145Z,9.07
2022-08-22T17:06:18.273Z,7.32
2022-08-22T17:09:03.430Z,6.32
2022-08-22T17:12:03.928Z,7.38
2022-08-22T17:14:56.685Z,6.63
2022-08-22T17:17:50.459Z,7.65
2022-08-22T17:20:23.054Z,6.25
2022-08-22T17:23:06.741Z,6.15
2022-08-22T17:26:07.116Z,6.30
2022-08-22T17:28:48.199Z,6.07
2022-08-22T17:31:17.711Z,5.30
2022-08-22T17:34:26.146Z,5.82
2022-08-22T17:37:06.586Z,27.33
2022-08-22T17:39:51.752Z,8.60
2022-08-22T17:42:29.904Z,6.38
2022-08-22T17:45:28.250Z,6.45
2022-08-22T17:48:06.588Z,5.78
2022-08-22T17:50:51.104Z,6.47
2022-08-22T17:53:38.897Z,7.13
2022-08-22T17:56:28.854Z,6.00
2022-08-22T17:59:00.851Z,5.72
2022-08-22T18:01:58.744Z,7.70
2022-08-22T18:04:48.233Z,6.68
2022-08-22T18:07:14.793Z,6.93
2022-08-22T18:09:50.566Z,6.72
2022-08-22T18:12:19.892Z,7.75
2022-08-22T18:14:55.262Z,6.60
2022-08-22T18:17:31.579Z,7.35
2022-08-22T18:20:09.847Z,7.78
2022-08-22T18:22:46.987Z,7.18
2022-08-22T18:25:19.575Z,7.20
2022-08-22T18:28:10.145Z,8.13
2022-08-22T18:30:50.728Z,7.00
2022-08-22T18:33:40.943Z,7.55
2022-08-22T18:36:13.654Z,7.53
2022-08-22T18:39:03.574Z,7.40
2022-08-22T18:41:50.393Z,7.38
2022-08-22T18:44:26.387Z,6.78
2022-08-22T18:46:57.060Z,6.65
2022-08-22T18:49:23.636Z,7.82
2022-08-22T18:52:08.407Z,7.75
2022-08-22T18:55:12.696Z,7.18
2022-08-22T18:58:00.762Z,7.45
2022-08-22T19:01:05.521Z,8.80
2022-08-22T19:03:54.023Z,7.88
2022-08-22T19:06:52.392Z,8.35
2022-08-22T19:09:49.200Z,8.98
2022-08-22T19:12:19.080Z,9.02
2022-08-22T19:14:54.878Z,9.38
2022-08-22T19:18:01.805Z,8.43
2022-08-22T19:21:10.805Z,10.73
2022-08-22T19:23:37.568Z,10.55
2022-08-22T19:26:25.811Z,10.82
2022-08-22T19:28:57.047Z,10.23
2022-08-22T19:31:44.186Z,11.18
2022-08-22T19:34:13.540Z,10.48
2022-08-22T19:36:40.714Z,10.68
2022-08-22T19:39:10.371Z,10.55
2022-08-22T19:41:42.797Z,10.50
2022-08-22T19:44:33.855Z,9.98
2022-08-22T19:47:24.280Z,9.55
2022-08-22T19:49:50.827Z,10.10
2022-08-22T19:52:32.285Z,9.70
2022-08-22T19:55:03.719Z,10.75
2022-08-22T19:57:47.636Z,10.10
2022-08-22T20:00:19.869Z,9.50
2022-08-22T20:03:13.495Z,9.57
2022-08-22T20:06:05.485Z,9.18
2022-08-22T20:08:57.472Z,9.70
2022-08-22T20:11:26.731Z,10.02
2022-08-22T20:14:30.685Z,9.90
2022-08-22T20:17:18.846Z,8.40
2022-08-22T20:22:52.951Z,9.73
2022-08-22T20:25:38.792Z,9.82
2022-08-22T20:28:34.182Z,9.95
2022-08-22T20:31:03.932Z,10.73
2022-08-22T20:33:42.507Z,10.05
2022-08-22T20:36:16.629Z,10.63
2022-08-22T20:39:00.361Z,11.07
2022-08-22T20:41:48.722Z,10.55
2022-08-22T20:44:30.753Z,12.02
2022-08-22T20:47:14.059Z,10.07
2022-08-22T20:49:52.428Z,10.75
2022-08-22T20:52:21.933Z,11.43
2022-08-22T20:55:07.279Z,10.15
2022-08-22T20:57:43.834Z,11.85
2022-08-22T21:00:14.342Z,9.63
2022-08-22T21:03:03.813Z,9.90
2022-08-22T21:05:37.695Z,10.30
2022-08-22T21:08:13.313Z,10.00
2022-08-22T21:10:59.984Z,11.57
2022-08-22T21:13:34.187Z,10.50
2022-08-22T21:16:13.274Z,10.75
2022-08-22T21:18:56.427Z,9.60
2022-08-22T21:21:26.193Z,9.90
2022-08-22T21:24:00.715Z,10.48
2022-08-22T21:26:36.639Z,10.63
2022-08-22T21:29:10.651Z,10.23
2022-08-22T21:31:44.625Z,10.77
2022-08-22T21:34:31.850Z,10.68
2022-08-22T21:37:18.152Z,11.18
2022-08-22T21:39:51.132Z,11.65
2022-08-22T21:42:27.345Z,11.43
2022-08-22T21:45:16.187Z,10.70
2022-08-22T21:47:42.927Z,12.43
2022-08-22T21:50:23.315Z,11.00
2022-08-22T21:52:56.033Z,12.80
2022-08-22T21:55:28.912Z,12.52
2022-08-22T21:58:34.220Z,11.43
2022-08-22T22:01:29.062Z,12.18
2022-08-22T22:03:57.950Z,11.63
2022-08-22T22:06:25.440Z,12.63
2022-08-22T22:08:52.089Z,12.40
2022-08-22T22:11:19.199Z,11.90
2022-08-22T22:13:46.269Z,12.93
2022-08-22T22:16:13.755Z,11.60
2022-08-22T22:18:41.306Z,12.02
2022-08-22T22:21:09.036Z,12.88
2022-08-22T22:23:35.677Z,12.73
2022-08-22T22:26:04.891Z,11.75
2022-08-22T22:28:38.898Z,11.40
2022-08-22T22:31:06.285Z,11.43
2022-08-22T22:33:35.969Z,12.05
2022-08-22T22:36:09.288Z,12.18
2022-08-22T22:38:38.268Z,11.70
2022-08-22T22:41:05.020Z,11.93
2022-08-22T22:43:31.676Z,12.43
2022-08-22T22:45:58.799Z,12.02
2022-08-22T22:48:25.537Z,12.07
2022-08-22T22:50:53.810Z,11.70
2022-08-22T22:53:21.475Z,11.43
2022-08-22T22:58:35.485Z,10.20
2022-08-22T23:01:20.849Z,11.70
2022-08-22T23:03:48.522Z,11.68
2022-08-22T23:06:18.711Z,12.40
2022-08-22T23:08:45.785Z,11.88
2022-08-22T23:11:15.031Z,11.38
2022-08-22T23:13:42.921Z,11.68
2022-08-22T23:16:12.969Z,12.77
2022-08-22T23:18:39.709Z,11.82
2022-08-22T23:21:13.751Z,12.63
2022-08-22T23:23:40.851Z,14.23
2022-08-22T23:26:08.141Z,11.80
2022-08-22T23:28:34.827Z,12.73
2022-08-22T23:31:26.535Z,13.77
2022-08-22T23:33:53.650Z,13.15
2022-08-22T23:36:22.438Z,12.40
2022-08-22T23:38:50.785Z,12.88
2022-08-22T23:41:19.374Z,11.43
2022-08-22T23:43:51.007Z,11.57
2022-08-22T23:46:20.215Z,11.73
2022-08-22T23:48:46.862Z,10.85
2022-08-22T23:51:15.670Z,11.40
2022-08-22T23:53:44.506Z,13.20
2022-08-22T23:56:19.229Z,12.18
2022-08-22T23:58:46.744Z,11.20
